Time;durP1;ratioP1;P1;durP2;ratioP2;P2;SDS_P1;SDS_P2;PMS_P1;PMS_P2;Temp;Humidity;BMP_temperature;BMP_pressure;BME280_temperature;BME280_humidity;BME280_pressure;Samples;Min_cycle;Max_cycle;Signal;HPM_P1;HPM_P2
2023/05/20 00:00:27;;;;;;;;;;;;;;;16.47;41.17;101165.34;4996660;28;6962;-76
2023/05/20 00:02:53;;;;;;;;;;;;;;;16.44;41.30;101162.66;4951672;28;6807;-76
2023/05/20 00:05:18;;;;;;;;;;;;;;;16.43;41.38;101162.59;4953855;28;6958;-76
2023/05/20 00:07:44;;;;;;;;;;;;;;;16.38;41.48;101154.66;4971504;28;6780;-76
2023/05/20 00:10:10;;;;;;;;;;;;;;;16.37;41.29;101158.06;5002636;28;6945;-76
2023/05/20 00:12:38;;;;;;;;;;;;;;;16.35;41.54;101157.16;4975402;28;7033;-76
2023/05/20 00:15:04;;;;;;;;;;;;;;;16.32;41.95;101160.50;4975400;28;7018;-76
2023/05/20 00:17:30;;;;;;;;;;;;;;;16.28;41.73;101166.38;4957668;28;6937;-76
2023/05/20 00:19:56;;;;;;;;;;;;;;;16.26;41.58;101164.56;4967880;28;6846;-76
2023/05/20 00:22:22;;;;;;;;;;;;;;;16.20;41.86;101160.91;5004022;28;6784;-76
2023/05/20 00:24:47;;;;;;;;;;;;;;;16.18;41.92;101167.75;4960080;28;9346;-76
2023/05/20 00:27:13;;;;;;;;;;;;;;;16.12;41.56;101167.50;4993901;28;7186;-76
2023/05/20 00:29:39;;;;;;;;;;;;;;;16.07;41.97;101163.88;4972766;28;7291;-76
2023/05/20 00:32:05;;;;;;;;;;;;;;;16.03;42.01;101177.50;4967951;28;6772;-76
2023/05/20 00:34:30;;;;;;;;;;;;;;;15.99;42.13;101165.28;4969437;28;7011;-76
2023/05/20 00:36:56;;;;;;;;;;;;;;;15.95;42.54;101167.75;4976008;28;6922;-76
2023/05/20 00:39:21;;;;;;;;;;;;;;;15.94;42.37;101167.69;4999931;28;6767;-76
2023/05/20 00:41:47;;;;;;;;;;;;;;;15.91;42.70;101173.63;4967097;28;6983;-76
2023/05/20 00:44:12;;;;;;;;;;;;;;;15.89;42.64;101172.66;4992153;28;6955;-76
2023/05/20 00:46:38;;;;;;;;;;;;;;;15.86;42.38;101169.06;4971570;28;7958;-76
2023/05/20 00:49:05;;;;;;;;;;;;;;;15.81;43.17;101172.38;4999669;28;6947;-76
2023/05/20 00:51:31;;;;;;;;;;;;;;;15.79;42.91;101173.13;4989294;28;6979;-76
2023/05/20 00:53:57;;;;;;;;;;;;;;;15.75;42.86;101171.25;4993580;28;7308;-76
2023/05/20 00:56:24;;;;;;;;;;;;;;;15.69;42.85;101170.19;4985311;28;7195;-76
2023/05/20 00:58:50;;;;;;;;;;;;;;;15.65;43.03;101165.72;4968619;28;7335;-76
2023/05/20 01:01:16;;;;;;;;;;;;;;;15.61;43.31;101168.13;4970236;28;6800;-76
2023/05/20 01:03:41;;;;;;;;;;;;;;;15.56;43.35;101165.38;4975270;28;6772;-76
2023/05/20 01:06:07;;;;;;;;;;;;;;;15.52;43.59;101164.34;4971446;28;6913;-76
2023/05/20 01:08:34;;;;;;;;;;;;;;;15.47;43.66;101160.69;4970915;28;7204;-76
2023/05/20 01:11:10;;;;;;;;;;;;;;;15.45;44.15;101159.75;5004132;28;6852;-76
2023/05/20 01:13:45;;;;;;;;;;;;;;;15.43;44.13;101161.41;4995191;28;7163;-76
2023/05/20 01:16:16;;;;;;;;;;;;;;;15.40;44.40;101150.91;4992657;28;6982;-76
2023/05/20 01:18:43;;;;;;;;;;;;;;;15.39;44.01;101157.81;4982634;28;7312;-76
2023/05/20 01:21:12;;;;;;;;;;;;;;;15.38;44.01;101163.78;5005836;28;7067;-76
2023/05/20 01:23:40;;;;;;;;;;;;;;;15.37;43.88;101164.63;4989035;28;6991;-76
2023/05/20 01:26:07;;;;;;;;;;;;;;;15.35;44.17;101155.91;5009812;28;6979;-76
2023/05/20 01:28:38;;;;;;;;;;;;;;;15.32;44.37;101163.53;4992948;28;7014;-76
2023/05/20 01:31:09;;;;;;;;;;;;;;;15.31;43.77;101169.53;4989346;28;7059;-76
2023/05/20 01:33:38;;;;;;;;;;;;;;;15.28;44.02;101161.66;4952942;28;6833;-76
2023/05/20 01:36:06;;;;;;;;;;;;;;;15.26;44.09;101160.72;4977960;28;6812;-76
2023/05/20 01:38:32;;;;;;;;;;;;;;;15.23;44.33;101156.31;4968255;28;7262;-76
2023/05/20 01:40:59;;;;;;;;;;;;;;;15.21;44.36;101151.91;5008842;28;6844;-76
2023/05/20 01:43:26;;;;;;;;;;;;;;;15.18;44.53;101152.63;4969493;28;7170;-76
2023/05/20 01:45:52;;;;;;;;;;;;;;;15.14;44.08;101149.03;4991817;28;6978;-76
2023/05/20 01:48:18;;;;;;;;;;;;;;;15.11;44.76;101148.94;4991951;28;7031;-76
2023/05/20 01:50:43;;;;;;;;;;;;;;;15.08;45.03;101147.91;4964492;28;7141;-76
2023/05/20 01:53:09;;;;;;;;;;;;;;;15.06;44.73;101149.56;5006873;28;6768;-76
2023/05/20 01:55:35;;;;;;;;;;;;;;;15.02;44.91;101151.13;4975604;28;6791;-76
2023/05/20 01:58:02;;;;;;;;;;;;;;;14.98;45.08;101150.13;4964106;28;7050;-76
2023/05/20 02:00:27;;;;;;;;;;;;;;;14.93;44.95;101141.31;4975424;28;6804;-76
2023/05/20 02:02:53;;;;;;;;;;;;;;;14.91;44.70;101142.06;5009068;28;6784;-76
2023/05/20 02:05:19;;;;;;;;;;;;;;;14.87;45.01;101141.03;4998132;28;7087;-74
2023/05/20 02:07:44;;;;;;;;;;;;;;;14.83;45.40;101145.19;4986987;28;7205;-74
2023/05/20 02:10:10;;;;;;;;;;;;;;;14.79;45.73;101138.16;4976253;28;6784;-76
2023/05/20 02:12:36;;;;;;;;;;;;;;;14.77;45.83;101139.75;4990018;28;7577;-75
2023/05/20 02:15:01;;;;;;;;;;;;;;;14.74;45.41;101136.19;4967116;28;6858;-75
2023/05/20 02:17:28;;;;;;;;;;;;;;;14.70;45.57;101140.31;5005098;28;7282;-73
2023/05/20 02:19:53;;;;;;;;;;;;;;;14.67;45.85;101137.56;4999667;28;7292;-73
2023/05/20 02:22:19;;;;;;;;;;;;;;;14.64;45.90;101140.94;4984978;28;7468;-75
2023/05/20 02:24:45;;;;;;;;;;;;;;;14.63;46.18;101139.16;4975005;28;7181;-73
2023/05/20 02:27:10;;;;;;;;;;;;;;;14.60;46.10;101135.56;5005006;28;6964;-75
2023/05/20 02:29:36;;;;;;;;;;;;;;;14.58;46.22;101133.81;5002709;28;7169;-73
2023/05/20 02:32:02;;;;;;;;;;;;;;;14.55;46.21;101133.66;4966676;28;6775;-75
2023/05/20 02:34:29;;;;;;;;;;;;;;;14.54;46.66;101131.88;4969630;28;6966;-74
2023/05/20 02:36:55;;;;;;;;;;;;;;;14.53;46.03;101134.41;4976532;28;7074;-74
2023/05/20 02:39:21;;;;;;;;;;;;;;;14.52;46.25;101125.78;4990772;28;8483;-74
2023/05/20 02:41:47;;;;;;;;;;;;;;;14.52;46.42;101127.47;4980252;28;7172;-75
2023/05/20 02:44:12;;;;;;;;;;;;;;;14.50;46.29;101122.28;4975800;28;7349;-74
2023/05/20 02:46:38;;;;;;;;;;;;;;;14.50;46.58;101135.16;4983603;28;6972;-75
2023/05/20 02:49:03;;;;;;;;;;;;;;;14.50;46.73;101127.44;4973355;28;7237;-75
2023/05/20 02:51:30;;;;;;;;;;;;;;;14.50;47.25;101127.44;5006229;28;6811;-75
2023/05/20 02:53:56;;;;;;;;;;;;;;;14.48;46.76;101128.16;5010904;28;6931;-76
2023/05/20 02:56:23;;;;;;;;;;;;;;;14.45;46.44;101128.91;4992501;28;6981;-76
2023/05/20 02:58:49;;;;;;;;;;;;;;;14.41;46.40;101120.16;4976762;28;6860;-75
2023/05/20 03:01:15;;;;;;;;;;;;;;;14.39;46.60;101131.22;4988786;28;6820;-75
2023/05/20 03:03:41;;;;;;;;;;;;;;;14.34;47.12;101112.09;4959747;28;7055;-76
2023/05/20 03:06:07;;;;;;;;;;;;;;;14.33;46.71;101121.50;4966222;28;7450;-76
2023/05/20 03:08:35;;;;;;;;;;;;;;;14.33;46.88;101115.47;5001504;28;7125;-76
2023/05/20 03:11:00;;;;;;;;;;;;;;;14.31;47.39;101120.56;5007381;28;7156;-76
2023/05/20 03:13:26;;;;;;;;;;;;;;;14.32;47.14;101114.59;4979289;28;6780;-76
2023/05/20 03:15:52;;;;;;;;;;;;;;;14.30;47.59;101114.53;4975710;28;6947;-76
2023/05/20 03:18:18;;;;;;;;;;;;;;;14.29;47.45;101115.34;4958307;28;6999;-76
2023/05/20 03:20:45;;;;;;;;;;;;;;;14.26;46.45;101110.03;5000047;28;7092;-76
2023/05/20 03:23:11;;;;;;;;;;;;;;;14.26;46.51;101116.91;4960284;28;7253;-76
2023/05/20 03:25:38;;;;;;;;;;;;;;;14.24;47.58;101114.25;4966087;28;7256;-75
2023/05/20 03:28:05;;;;;;;;;;;;;;;14.22;47.27;101118.47;4978175;28;7198;-76
2023/05/20 03:30:31;;;;;;;;;;;;;;;14.22;46.71;101115.91;4988933;28;6984;-76
2023/05/20 03:32:57;;;;;;;;;;;;;;;14.21;47.55;101116.72;4976835;28;6791;-76
2023/05/20 03:35:24;;;;;;;;;;;;;;;14.20;47.54;101114.06;4999569;28;7279;-76
2023/05/20 03:37:53;;;;;;;;;;;;;;;14.19;47.80;101107.13;4962644;28;7117;-76
2023/05/20 03:40:20;;;;;;;;;;;;;;;14.16;47.02;101116.50;5006156;28;6819;-76
2023/05/20 03:42:46;;;;;;;;;;;;;;;14.13;46.96;101103.47;4970903;28;6781;-76
2023/05/20 03:45:12;;;;;;;;;;;;;;;14.11;47.63;101106.81;4972950;28;6844;-76
2023/05/20 03:47:37;;;;;;;;;;;;;;;14.08;47.00;101115.28;4984080;28;7283;-76
2023/05/20 03:50:03;;;;;;;;;;;;;;;14.05;47.59;101111.69;4972400;28;6975;-76
2023/05/20 03:52:29;;;;;;;;;;;;;;;14.00;47.65;101107.22;4999654;28;6967;-76
2023/05/20 03:54:55;;;;;;;;;;;;;;;13.98;47.30;101108.81;5006955;28;8576;-76
2023/05/20 03:57:21;;;;;;;;;;;;;;;13.98;48.29;101105.38;4962352;28;6997;-76
2023/05/20 03:59:47;;;;;;;;;;;;;;;13.97;47.86;101107.03;4976348;28;6788;-76
2023/05/20 04:02:13;;;;;;;;;;;;;;;13.97;48.34;101104.47;4969735;28;6811;-76
2023/05/20 04:04:41;;;;;;;;;;;;;;;13.99;47.81;101117.44;5006564;28;6776;-76
2023/05/20 04:07:08;;;;;;;;;;;;;;;13.99;48.16;101118.31;4974432;28;6963;-76
2023/05/20 04:09:34;;;;;;;;;;;;;;;14.00;48.06;101120.09;5004412;28;7325;-76
2023/05/20 04:12:00;;;;;;;;;;;;;;;14.00;47.97;101117.50;4968856;28;6989;-76
2023/05/20 04:14:26;;;;;;;;;;;;;;;14.00;49.04;101112.38;4966502;28;6783;-75
2023/05/20 04:16:51;;;;;;;;;;;;;;;14.02;49.09;101109.84;4951551;28;7236;-75
2023/05/20 04:19:22;;;;;;;;;;;;;;;14.05;48.21;101114.25;4967928;28;6768;-75
2023/05/20 04:21:48;;;;;;;;;;;;;;;14.10;49.12;101116.22;4987030;28;7041;-75
2023/05/20 04:24:14;;;;;;;;;;;;;;;14.21;48.86;101115.81;4964065;28;6780;-75
2023/05/20 04:26:39;;;;;;;;;;;;;;;14.32;48.89;101109.44;4989442;28;7767;-76
2023/05/20 04:29:05;;;;;;;;;;;;;;;14.43;48.76;101102.19;4949643;28;7290;-76
2023/05/20 04:31:31;;;;;;;;;;;;;;;14.57;49.49;101110.50;4963310;28;7209;-75
2023/05/20 04:33:57;;;;;;;;;;;;;;;14.68;49.16;101117.00;4994938;28;7950;-75
2023/05/20 04:36:29;;;;;;;;;;;;;;;14.82;49.25;101111.56;4960946;28;6791;-76
2023/05/20 04:38:54;;;;;;;;;;;;;;;14.94;48.72;101114.69;4975371;28;8790;-76
2023/05/20 04:41:21;;;;;;;;;;;;;;;15.00;48.44;101106.31;4998572;28;6784;-76
2023/05/20 04:43:48;;;;;;;;;;;;;;;15.03;48.31;101105.56;4963784;28;6796;-76
2023/05/20 04:46:15;;;;;;;;;;;;;;;15.05;47.59;101099.63;4964956;28;6832;-76
2023/05/20 04:48:42;;;;;;;;;;;;;;;15.04;48.08;101107.31;4998073;28;7035;-75
2023/05/20 04:51:09;;;;;;;;;;;;;;;15.00;47.96;101099.44;4977604;28;7243;-76
2023/05/20 04:53:35;;;;;;;;;;;;;;;15.02;47.66;101102.09;5003570;28;6968;-76
2023/05/20 04:56:02;;;;;;;;;;;;;;;15.06;48.33;101106.53;4990651;28;6985;-76
2023/05/20 04:58:29;;;;;;;;;;;;;;;15.12;47.94;101103.34;5007043;28;6847;-76
2023/05/20 05:00:55;;;;;;;;;;;;;;;15.18;48.28;101113.03;4974383;28;6869;-76
2023/05/20 05:03:21;;;;;;;;;;;;;;;15.28;48.78;101113.47;5001247;28;6994;-76
2023/05/20 05:05:46;;;;;;;;;;;;;;;15.41;48.57;101107.09;4957563;28;7171;-76
2023/05/20 05:08:12;;;;;;;;;;;;;;;15.57;48.44;101112.88;5002617;28;6782;-76
2023/05/20 05:10:38;;;;;;;;;;;;;;;15.74;48.54;101102.28;5006977;28;6776;-76
2023/05/20 05:13:04;;;;;;;;;;;;;;;15.90;48.62;101090.84;4985995;28;7796;-76
2023/05/20 05:15:29;;;;;;;;;;;;;;;16.10;48.25;101094.16;4997866;28;6989;-76
2023/05/20 05:17:55;;;;;;;;;;;;;;;16.29;48.03;101089.66;4954048;28;7242;-76
2023/05/20 05:20:21;;;;;;;;;;;;;;;16.49;47.87;101093.81;4971441;28;6848;-76
2023/05/20 05:22:49;;;;;;;;;;;;;;;16.72;47.71;101096.34;4959405;28;7263;-76
2023/05/20 05:25:15;;;;;;;;;;;;;;;16.93;47.53;101092.69;4972134;28;7035;-76
2023/05/20 05:27:41;;;;;;;;;;;;;;;17.13;46.97;101087.31;4958726;28;7184;-76
2023/05/20 05:30:07;;;;;;;;;;;;;;;17.31;47.08;101085.31;4977158;28;7076;-76
2023/05/20 05:32:34;;;;;;;;;;;;;;;17.51;46.46;101087.63;4978176;28;7892;-76
2023/05/20 05:34:59;;;;;;;;;;;;;;;17.71;45.98;101082.16;4997857;28;6779;-76
2023/05/20 05:37:25;;;;;;;;;;;;;;;17.89;45.56;101084.41;4982943;28;7246;-76
2023/05/20 05:39:51;;;;;;;;;;;;;;;18.03;45.71;101071.84;4983357;28;6803;-76
2023/05/20 05:42:17;;;;;;;;;;;;;;;18.16;45.08;101079.16;4983705;28;7194;-76
2023/05/20 05:44:43;;;;;;;;;;;;;;;18.23;44.47;101076.72;5000156;28;6967;-76
2023/05/20 05:47:09;;;;;;;;;;;;;;;18.24;44.25;101073.28;4969222;28;6987;-76
2023/05/20 05:49:35;;;;;;;;;;;;;;;18.20;44.05;101069.72;5000203;28;6812;-76
2023/05/20 05:52:00;;;;;;;;;;;;;;;18.10;43.40;101063.44;4996476;28;6784;-76
2023/05/20 05:54:26;;;;;;;;;;;;;;;18.02;44.04;101070.06;4963694;28;6971;-76
2023/05/20 05:56:52;;;;;;;;;;;;;;;17.95;43.71;101071.63;4986428;28;6995;-76
2023/05/20 05:59:18;;;;;;;;;;;;;;;17.89;43.63;101077.53;4963022;28;8046;-76
2023/05/20 06:01:44;;;;;;;;;;;;;;;17.81;43.95;101073.81;4984341;28;7284;-76
2023/05/20 06:04:10;;;;;;;;;;;;;;;17.74;43.82;101072.78;4965571;28;7394;-76
2023/05/20 06:06:36;;;;;;;;;;;;;;;17.68;43.70;101069.13;4975752;28;6985;-76
2023/05/20 06:09:02;;;;;;;;;;;;;;;17.63;44.37;101069.84;4960196;28;7345;-76
2023/05/20 06:11:28;;;;;;;;;;;;;;;17.61;44.56;101078.41;4970622;28;9885;-76
2023/05/20 06:13:54;;;;;;;;;;;;;;;17.57;44.11;101072.25;4982921;28;7179;-76
2023/05/20 06:16:20;;;;;;;;;;;;;;;17.58;44.45;101068.84;4971836;28;6848;-76
2023/05/20 06:18:48;;;;;;;;;;;;;;;17.58;44.45;101071.44;4970394;28;6974;-76
2023/05/20 06:21:14;;;;;;;;;;;;;;;17.59;44.41;101069.72;4995605;28;7007;-75
2023/05/20 06:23:40;;;;;;;;;;;;;;;17.59;44.51;101064.53;4981865;28;6999;-76
2023/05/20 06:26:06;;;;;;;;;;;;;;;17.63;44.76;101064.66;4990939;28;6772;-75
2023/05/20 06:28:31;;;;;;;;;;;;;;;17.70;44.25;101062.28;4963209;28;6771;-76
2023/05/20 06:30:57;;;;;;;;;;;;;;;17.76;44.47;101072.78;4994167;28;6831;-75
2023/05/20 06:33:27;;;;;;;;;;;;;;;17.85;45.18;101072.19;4966185;28;7226;-75
2023/05/20 06:35:55;;;;;;;;;;;;;;;17.94;44.59;101077.66;4985759;28;7183;-76
2023/05/20 06:38:21;;;;;;;;;;;;;;;17.99;44.22;101065.69;4957959;28;7140;-76
2023/05/20 06:40:48;;;;;;;;;;;;;;;18.07;44.23;101065.06;4978154;28;7330;-76
2023/05/20 06:43:15;;;;;;;;;;;;;;;18.12;44.56;101059.16;4966011;28;6856;-76
2023/05/20 06:45:40;;;;;;;;;;;;;;;18.18;44.45;101064.53;4975276;28;6808;-75
2023/05/20 06:48:06;;;;;;;;;;;;;;;18.23;44.03;101055.97;4966947;28;6838;-75
2023/05/20 06:50:32;;;;;;;;;;;;;;;18.30;44.30;101053.59;5006476;28;6771;-75
2023/05/20 06:52:58;;;;;;;;;;;;;;;18.40;44.74;101057.31;4971998;28;6918;-76
2023/05/20 06:55:23;;;;;;;;;;;;;;;18.50;44.48;101048.06;4950257;28;8570;-76
2023/05/20 06:57:49;;;;;;;;;;;;;;;18.61;44.21;101043.13;4986734;28;7252;-76
2023/05/20 07:00:15;;;;;;;;;;;;;;;18.75;44.59;101043.47;4968765;28;6768;-75
2023/05/20 07:02:41;;;;;;;;;;;;;;;18.96;44.07;101042.22;4962067;28;6971;-76
2023/05/20 07:05:08;;;;;;;;;;;;;;;19.19;43.95;101041.94;4986446;28;6975;-75
2023/05/20 07:07:33;;;;;;;;;;;;;;;19.44;43.63;101040.75;4993969;28;7028;-75
2023/05/20 07:09:59;;;;;;;;;;;;;;;19.71;43.75;101037.84;4969483;28;7203;-76
2023/05/20 07:12:25;;;;;;;;;;;;;;;19.96;43.51;101032.28;4963747;28;6999;-76
2023/05/20 07:14:51;;;;;;;;;;;;;;;20.18;42.88;101025.75;4957221;28;6979;-75
2023/05/20 07:17:16;;;;;;;;;;;;;;;20.38;42.31;101038.25;4997274;28;6784;-75
2023/05/20 07:19:42;;;;;;;;;;;;;;;20.56;41.91;101032.47;4944556;28;7479;-75
2023/05/20 07:22:07;;;;;;;;;;;;;;;20.68;41.51;101026.59;4956447;28;6969;-75
2023/05/20 07:24:35;;;;;;;;;;;;;;;20.81;41.23;101027.66;4969860;28;7067;-75
2023/05/20 07:27:00;;;;;;;;;;;;;;;20.95;41.43;101020.09;4974871;28;7006;-75
2023/05/20 07:29:26;;;;;;;;;;;;;;;21.13;41.58;101014.28;4958146;28;7130;-75
2023/05/20 07:31:52;;;;;;;;;;;;;;;21.35;41.16;101009.38;4986006;28;6872;-76
2023/05/20 07:34:18;;;;;;;;;;;;;;;21.51;40.38;101008.69;4948581;28;6986;-76
2023/05/20 07:36:43;;;;;;;;;;;;;;;21.59;40.06;101011.41;4997847;28;7102;-76
2023/05/20 07:39:09;;;;;;;;;;;;;;;21.67;39.93;101013.22;4966444;28;6783;-76
2023/05/20 07:41:36;;;;;;;;;;;;;;;21.77;39.84;101012.50;4963155;28;7169;-77
2023/05/20 07:44:04;;;;;;;;;;;;;;;21.83;39.41;101015.19;4992774;28;6871;-77
2023/05/20 07:46:30;;;;;;;;;;;;;;;21.80;39.01;101011.66;4985489;28;6978;-76
2023/05/20 07:48:56;;;;;;;;;;;;;;;21.74;38.84;101008.13;4993217;28;6974;-76
2023/05/20 07:51:22;;;;;;;;;;;;;;;21.74;39.17;101015.97;4977659;28;6954;-76
2023/05/20 07:53:47;;;;;;;;;;;;;;;21.83;39.08;101017.78;4998866;28;7155;-76
2023/05/20 07:56:13;;;;;;;;;;;;;;;21.89;38.51;101023.09;4964356;28;6964;-76
2023/05/20 07:58:42;;;;;;;;;;;;;;;21.94;38.85;101017.91;4978371;28;6780;-76
2023/05/20 08:01:08;;;;;;;;;;;;;;;22.01;38.56;101021.47;4990471;28;6980;-76
2023/05/20 08:03:35;;;;;;;;;;;;;;;22.09;38.78;101003.25;4970102;28;6880;-76
2023/05/20 08:06:03;;;;;;;;;;;;;;;22.17;38.50;101001.59;4971600;28;7169;-76
2023/05/20 08:08:32;;;;;;;;;;;;;;;22.23;38.69;101006.00;4966833;28;6784;-76
2023/05/20 08:10:57;;;;;;;;;;;;;;;22.31;37.87;101005.22;5002572;28;6803;-76
2023/05/20 08:13:24;;;;;;;;;;;;;;;22.39;38.20;100999.19;4971831;28;6780;-74
2023/05/20 08:15:55;;;;;;;;;;;;;;;22.49;38.34;101003.66;4978076;28;7019;-74
2023/05/20 08:18:22;;;;;;;;;;;;;;;22.59;38.15;101008.09;4969733;28;6800;-74
2023/05/20 08:20:48;;;;;;;;;;;;;;;22.70;37.62;100996.88;4978895;28;6796;-74
2023/05/20 08:23:13;;;;;;;;;;;;;;;22.82;37.47;100996.06;4980782;28;7150;-74
2023/05/20 08:25:39;;;;;;;;;;;;;;;22.91;37.12;100995.25;4989560;28;7214;-74
2023/05/20 08:28:06;;;;;;;;;;;;;;;23.03;37.19;100991.00;4994733;28;6935;-74
2023/05/20 08:30:33;;;;;;;;;;;;;;;23.26;36.87;100987.59;4963479;28;7155;-74
2023/05/20 08:32:59;;;;;;;;;;;;;;;23.54;36.91;100973.78;4966596;28;6804;-74
2023/05/20 08:35:25;;;;;;;;;;;;;;;23.83;36.46;100983.47;5001367;28;6796;-74
2023/05/20 08:37:54;;;;;;;;;;;;;;;24.06;35.86;100975.69;4968589;28;6776;-74
2023/05/20 08:40:21;;;;;;;;;;;;;;;24.23;35.70;100977.44;4989639;28;6827;-76
2023/05/20 08:42:53;;;;;;;;;;;;;;;24.43;35.36;100974.81;4960046;28;7273;-74
2023/05/20 08:45:25;;;;;;;;;;;;;;;24.73;35.00;100975.69;4953015;28;7053;-74
2023/05/20 08:47:51;;;;;;;;;;;;;;;25.14;35.08;100962.47;4982969;28;7306;-75
2023/05/20 08:50:17;;;;;;;;;;;;;;;25.49;34.61;100953.56;4978831;28;6973;-74
2023/05/20 08:52:47;;;;;;;;;;;;;;;25.76;33.73;100967.44;5002707;28;6795;-74
2023/05/20 08:55:41;;;;;;;;;;;;;;;25.99;33.29;100969.06;4976090;28;6978;-74
2023/05/20 08:58:09;;;;;;;;;;;;;;;26.16;33.30;100971.56;4969886;28;7073;-73
2023/05/20 09:00:35;;;;;;;;;;;;;;;26.23;32.78;100973.28;4966870;28;6908;-73
2023/05/20 09:03:01;;;;;;;;;;;;;;;26.26;32.74;100964.50;4998589;28;6884;-73
2023/05/20 09:05:27;;;;;;;;;;;;;;;26.29;32.71;100961.84;4987686;28;7177;-74
2023/05/20 09:08:05;;;;;;;;;;;;;;;26.48;32.48;100967.81;4970395;28;6784;-73
2023/05/20 09:10:32;;;;;;;;;;;;;;;26.73;32.46;100959.69;4962988;28;7138;-74
2023/05/20 09:13:01;;;;;;;;;;;;;;;27.07;32.25;100961.09;4981922;28;7235;-74
2023/05/20 09:15:27;;;;;;;;;;;;;;;27.45;31.50;100957.09;5002003;28;6841;-74
2023/05/20 09:17:52;;;;;;;;;;;;;;;27.41;31.45;100952.75;4983745;28;6964;-74
2023/05/20 09:20:21;;;;;;;;;;;;;;;27.14;31.18;100960.16;4966746;28;6948;-74
2023/05/20 09:22:52;;;;;;;;;;;;;;;26.80;31.41;100955.22;5000021;28;6804;-74
2023/05/20 09:25:20;;;;;;;;;;;;;;;26.61;31.76;100960.69;4977849;28;7176;-74
2023/05/20 09:27:46;;;;;;;;;;;;;;;26.67;31.76;100951.84;4972665;28;6804;-74
2023/05/20 09:30:12;;;;;;;;;;;;;;;26.74;31.50;100951.75;4957862;28;6986;-74
2023/05/20 09:32:38;;;;;;;;;;;;;;;26.87;31.42;100943.75;4981654;28;6792;-74
2023/05/20 09:35:05;;;;;;;;;;;;;;;27.12;31.43;100939.09;4974899;28;6832;-74
2023/05/20 09:37:35;;;;;;;;;;;;;;;27.51;31.03;100943.84;4989487;28;6895;-74
2023/05/20 09:40:04;;;;;;;;;;;;;;;27.76;30.17;100937.38;5003283;28;7006;-74
2023/05/20 09:42:35;;;;;;;;;;;;;;;27.79;30.34;100932.94;4969643;28;7048;-74
2023/05/20 09:45:03;;;;;;;;;;;;;;;27.69;29.93;100933.97;4966326;28;7300;-74
2023/05/20 09:47:29;;;;;;;;;;;;;;;27.63;30.52;100944.63;4966263;28;6876;-74
2023/05/20 09:49:55;;;;;;;;;;;;;;;27.55;30.35;100937.69;4983494;28;7028;-74
2023/05/20 09:52:21;;;;;;;;;;;;;;;27.47;30.29;100936.91;4973878;28;6875;-74
2023/05/20 09:54:48;;;;;;;;;;;;;;;27.54;30.33;100940.31;4975811;28;8553;-74
2023/05/20 09:57:13;;;;;;;;;;;;;;;27.71;30.36;100933.06;4978181;28;6788;-74
2023/05/20 09:59:40;;;;;;;;;;;;;;;27.97;30.00;100930.91;5000735;28;6911;-74
2023/05/20 10:02:07;;;;;;;;;;;;;;;28.28;30.16;100930.41;4992291;28;7309;-74
2023/05/20 10:04:37;;;;;;;;;;;;;;;28.71;30.03;100925.25;5004018;28;6792;-75
2023/05/20 10:07:21;;;;;;;;;;;;;;;28.98;30.03;100923.84;5001208;28;6978;-74
2023/05/20 10:10:30;;;;;;;;;;;;;;;29.05;29.26;100924.59;4990021;28;6979;-74
2023/05/20 10:13:49;;;;;;;;;;;;;;;29.03;28.92;100931.69;4972099;28;7184;-74
2023/05/20 10:16:36;;;;;;;;;;;;;;;28.80;28.92;100928.56;4971147;28;6985;-74
2023/05/20 10:19:30;;;;;;;;;;;;;;;28.56;28.44;100929.91;4977228;28;7251;-74
2023/05/20 10:22:00;;;;;;;;;;;;;;;28.33;28.95;100925.94;4977540;28;6820;-74
2023/05/20 10:24:40;;;;;;;;;;;;;;;28.10;29.54;100924.56;4967674;28;6851;-74
2023/05/20 10:27:14;;;;;;;;;;;;;;;28.18;29.65;100923.53;4973806;28;6962;-73
2023/05/20 10:29:52;;;;;;;;;;;;;;;28.31;29.83;100921.59;5005808;28;7149;-73
2023/05/20 10:32:31;;;;;;;;;;;;;;;28.50;29.82;100911.59;4992013;28;8810;-73
2023/05/20 10:35:03;;;;;;;;;;;;;;;28.96;30.03;100915.97;4972638;28;6963;-73
2023/05/20 10:37:44;;;;;;;;;;;;;;;29.41;29.01;100919.41;5001082;28;7153;-73
2023/05/20 10:40:14;;;;;;;;;;;;;;;29.66;28.23;100910.97;4978724;28;7251;-74
2023/05/20 10:42:41;;;;;;;;;;;;;;;29.83;28.00;100912.31;4997214;28;6800;-74
2023/05/20 10:45:08;;;;;;;;;;;;;;;29.74;27.94;100916.91;5004652;28;6792;-73
2023/05/20 10:47:35;;;;;;;;;;;;;;;29.62;28.46;100922.50;4970319;28;6804;-74
2023/05/20 10:50:04;;;;;;;;;;;;;;;29.63;28.56;100911.03;4985654;28;6980;-74
2023/05/20 10:52:35;;;;;;;;;;;;;;;29.61;28.83;100911.09;4988805;28;7014;-73
2023/05/20 10:55:03;;;;;;;;;;;;;;;29.32;28.91;100914.34;4982055;28;6999;-73
2023/05/20 10:57:30;;;;;;;;;;;;;;;29.11;28.56;100906.00;4999627;28;7102;-73
2023/05/20 10:59:56;;;;;;;;;;;;;;;29.20;28.39;100911.09;5003841;28;7582;-73
2023/05/20 11:02:25;;;;;;;;;;;;;;;29.36;28.59;100911.59;4971278;28;6791;-74
2023/05/20 11:04:52;;;;;;;;;;;;;;;29.22;28.33;100906.63;4972675;28;7319;-74
2023/05/20 11:07:27;;;;;;;;;;;;;;;29.02;28.73;100903.56;4967514;28;6790;-74
2023/05/20 11:09:52;;;;;;;;;;;;;;;28.99;29.17;100901.00;4972926;28;6820;-73
2023/05/20 11:12:18;;;;;;;;;;;;;;;29.23;29.22;100903.09;4970277;28;6772;-74
2023/05/20 11:14:43;;;;;;;;;;;;;;;29.55;28.52;100899.78;4967662;28;7007;-74
2023/05/20 11:17:09;;;;;;;;;;;;;;;29.79;28.68;100888.63;4968496;28;6776;-74
2023/05/20 11:19:36;;;;;;;;;;;;;;;30.12;27.60;100887.84;4966397;28;6950;-74
2023/05/20 11:22:02;;;;;;;;;;;;;;;30.56;27.99;100876.97;4983893;28;6871;-74
2023/05/20 11:24:28;;;;;;;;;;;;;;;31.06;27.80;100870.25;4982764;28;6912;-74
2023/05/20 11:26:56;;;;;;;;;;;;;;;31.18;27.05;100874.31;4958564;28;7025;-74
2023/05/20 11:29:22;;;;;;;;;;;;;;;31.22;27.04;100880.38;4998827;28;6896;-74
2023/05/20 11:31:51;;;;;;;;;;;;;;;31.36;27.19;100872.03;4972451;28;7264;-74
2023/05/20 11:34:23;;;;;;;;;;;;;;;31.58;26.99;100872.19;4984533;28;6800;-72
2023/05/20 11:36:56;;;;;;;;;;;;;;;31.63;26.15;100864.97;4962914;28;6792;-73
2023/05/20 11:39:22;;;;;;;;;;;;;;;31.46;26.33;100862.88;4972907;28;7491;-73
2023/05/20 11:41:47;;;;;;;;;;;;;;;31.36;26.18;100867.59;4973547;28;7011;-73
2023/05/20 11:44:13;;;;;;;;;;;;;;;31.27;26.27;100867.88;4981072;28;6779;-73
2023/05/20 11:46:44;;;;;;;;;;;;;;;31.30;26.37;100862.50;5000812;28;6963;-73
2023/05/20 11:49:13;;;;;;;;;;;;;;;31.21;26.55;100868.06;4978858;28;6776;-73
2023/05/20 11:51:39;;;;;;;;;;;;;;;30.74;26.35;100856.22;4987092;28;7286;-73
2023/05/20 11:54:07;;;;;;;;;;;;;;;30.04;26.95;100861.59;4994959;28;7050;-73
2023/05/20 11:56:37;;;;;;;;;;;;;;;29.70;27.44;100865.09;4966622;28;6994;-73
2023/05/20 11:59:09;;;;;;;;;;;;;;;29.65;27.48;100856.44;5003922;28;6788;-73
2023/05/20 12:01:39;;;;;;;;;;;;;;;29.88;27.78;100862.91;4974285;28;6800;-73
2023/05/20 12:04:06;;;;;;;;;;;;;;;30.14;27.76;100848.19;4976507;28;6996;-73
2023/05/20 12:06:32;;;;;;;;;;;;;;;30.30;27.75;100840.69;4978662;28;7015;-73
2023/05/20 12:09:05;;;;;;;;;;;;;;;30.40;27.04;100849.22;4972825;28;7228;-73
2023/05/20 12:11:39;;;;;;;;;;;;;;;30.59;27.23;100846.94;4977010;28;6800;-73
2023/05/20 12:14:05;;;;;;;;;;;;;;;30.87;27.33;100843.50;4968464;28;7154;-73
2023/05/20 12:16:33;;;;;;;;;;;;;;;30.76;26.74;100834.13;5007651;28;7109;-73
2023/05/20 12:18:59;;;;;;;;;;;;;;;30.41;26.48;100835.09;4969670;28;7008;-73
2023/05/20 12:21:28;;;;;;;;;;;;;;;29.71;27.60;100843.06;4974989;28;7020;-73
2023/05/20 12:23:57;;;;;;;;;;;;;;;28.92;27.70;100845.72;4992832;28;6832;-73
2023/05/20 12:26:27;;;;;;;;;;;;;;;28.19;28.82;100849.78;4980062;28;7074;-73
2023/05/20 12:28:54;;;;;;;;;;;;;;;27.58;29.21;100849.91;4950648;28;9172;-73
2023/05/20 12:31:20;;;;;;;;;;;;;;;27.39;30.07;100846.66;4970819;28;8041;-73
2023/05/20 12:33:46;;;;;;;;;;;;;;;27.65;30.70;100848.06;5003256;28;6780;-73
2023/05/20 12:36:13;;;;;;;;;;;;;;;27.90;30.55;100853.78;4977612;28;6780;-73
2023/05/20 12:38:38;;;;;;;;;;;;;;;27.77;29.60;100853.09;4974134;28;6930;-73
2023/05/20 12:41:04;;;;;;;;;;;;;;;27.38;30.04;100845.81;4975800;28;6801;-73
2023/05/20 12:43:30;;;;;;;;;;;;;;;27.00;30.51;100844.59;5006655;28;7004;-73
2023/05/20 12:45:56;;;;;;;;;;;;;;;26.76;31.29;100846.59;5009201;28;6788;-73
2023/05/20 12:48:22;;;;;;;;;;;;;;;26.82;31.15;100845.66;5008019;28;7219;-73